createdAt,value
2022-10-03T00:00:21.182Z,9.93
2022-10-03T00:03:42.891Z,16.95
2022-10-03T00:06:57.055Z,8.93
2022-10-03T00:10:06.139Z,8.20
2022-10-03T00:13:05.654Z,9.68
2022-10-03T00:16:03.283Z,5.97
2022-10-03T00:19:14.263Z,8.65
2022-10-03T00:22:18.169Z,8.55
2022-10-03T00:25:25.763Z,6.72
2022-10-03T00:28:20.485Z,10.43
2022-10-03T00:31:17.193Z,9.38
2022-10-03T00:34:25.223Z,10.30
2022-10-03T00:37:24.820Z,6.88
2022-10-03T00:40:44.570Z,8.52
2022-10-03T00:44:06.658Z,9.18
2022-10-03T00:47:02.526Z,8.48
2022-10-03T00:50:29.094Z,10.45
2022-10-03T00:53:43.729Z,8.82
2022-10-03T00:56:48.443Z,5.95
2022-10-03T00:59:55.490Z,9.73
2022-10-03T01:02:59.543Z,8.70
2022-10-03T01:06:03.496Z,6.93
2022-10-03T01:09:17.271Z,10.57
2022-10-03T01:12:19.152Z,11.23
2022-10-03T01:15:16.702Z,13.88
2022-10-03T01:18:10.181Z,7.97
2022-10-03T01:24:00.047Z,8.48
2022-10-03T01:27:00.721Z,7.43
2022-10-03T01:30:17.105Z,13.25
2022-10-03T01:33:31.436Z,9.07
2022-10-03T01:36:52.481Z,11.85
2022-10-03T01:40:16.825Z,10.00
2022-10-03T01:43:22.193Z,15.13
2022-10-03T01:46:20.248Z,4.68
2022-10-03T01:49:34.608Z,4.50
2022-10-03T01:52:39.618Z,9.88
2022-10-03T01:55:31.198Z,5.38
2022-10-03T01:58:27.087Z,9.85
2022-10-03T02:01:28.900Z,12.07
2022-10-03T02:04:41.989Z,11.05
2022-10-03T02:07:40.807Z,9.60
2022-10-03T02:10:36.036Z,5.53
2022-10-03T02:13:44.875Z,11.40
2022-10-03T02:16:59.349Z,7.15
2022-10-03T02:20:05.054Z,12.35
2022-10-03T02:22:54.279Z,6.30
2022-10-03T02:26:00.327Z,11.32
2022-10-03T02:29:12.990Z,15.20
2022-10-03T02:32:27.342Z,7.55
2022-10-03T02:35:37.387Z,13.40
2022-10-03T02:38:48.318Z,10.98
2022-10-03T02:42:13.038Z,7.75
2022-10-03T02:45:16.772Z,7.57
2022-10-03T02:48:40.402Z,17.95
2022-10-03T02:52:03.848Z,7.03
2022-10-03T02:55:11.165Z,12.02
2022-10-03T02:58:18.307Z,6.90
2022-10-03T03:01:28.877Z,9.48
2022-10-03T03:04:37.423Z,9.63
2022-10-03T03:07:39.088Z,8.20
2022-10-03T03:10:44.859Z,17.08
2022-10-03T03:13:42.667Z,10.40
2022-10-03T03:16:37.505Z,14.68
2022-10-03T03:19:59.650Z,17.02
2022-10-03T03:22:56.906Z,10.13
2022-10-03T03:26:04.680Z,16.13
2022-10-03T03:29:02.345Z,14.02
2022-10-03T03:32:02.205Z,13.18
2022-10-03T03:35:20.219Z,13.52
2022-10-03T03:38:34.884Z,10.27
2022-10-03T03:41:36.408Z,10.73
2022-10-03T03:44:54.334Z,13.95
2022-10-03T03:47:49.144Z,9.50
2022-10-03T03:50:53.599Z,16.27
2022-10-03T03:54:13.326Z,8.18
2022-10-03T03:57:24.564Z,23.55
2022-10-03T04:00:15.811Z,12.30
2022-10-03T04:03:01.584Z,11.73
2022-10-03T04:05:56.105Z,18.45
2022-10-03T04:08:47.740Z,12.65
2022-10-03T04:11:53.815Z,12.63
2022-10-03T04:14:45.886Z,13.13
2022-10-03T04:18:08.555Z,15.63
2022-10-03T04:21:01.931Z,9.68
2022-10-03T04:24:03.124Z,15.00
2022-10-03T04:27:19.618Z,7.32
2022-10-03T04:30:19.117Z,12.50
2022-10-03T04:33:36.959Z,17.67
2022-10-03T04:37:13.550Z,14.20
2022-10-03T04:40:22.482Z,9.82
2022-10-03T04:43:42.142Z,14.05
2022-10-03T04:46:35.083Z,10.13
2022-10-03T04:49:32.436Z,14.48
2022-10-03T04:52:40.242Z,14.52
2022-10-03T04:55:49.837Z,9.45
2022-10-03T04:58:53.972Z,14.73
2022-10-03T05:02:03.243Z,15.25
2022-10-03T05:05:12.253Z,14.65
2022-10-03T05:08:07.139Z,12.38
2022-10-03T05:10:56.854Z,14.07
2022-10-03T05:14:11.335Z,20.63
2022-10-03T05:17:22.065Z,19.02
2022-10-03T05:20:38.618Z,11.45
2022-10-03T05:24:02.781Z,15.10
2022-10-03T05:29:59.746Z,12.30
2022-10-03T05:32:51.679Z,18.52
2022-10-03T05:36:24.867Z,19.40
2022-10-03T05:39:35.096Z,9.52
2022-10-03T05:42:23.917Z,11.98
2022-10-03T05:45:30.257Z,13.85
2022-10-03T05:48:32.775Z,26.13
2022-10-03T05:51:50.336Z,18.13
2022-10-03T05:54:45.849Z,22.15
2022-10-03T05:58:00.658Z,13.30
2022-10-03T06:00:51.852Z,17.73
2022-10-03T06:03:55.787Z,13.48
2022-10-03T06:07:13.111Z,11.93
2022-10-03T06:10:07.608Z,13.25
2022-10-03T06:13:11.871Z,17.73
2022-10-03T06:15:59.440Z,18.10
2022-10-03T06:19:11.719Z,18.80
2022-10-03T06:22:00.384Z,18.08
2022-10-03T06:25:21.660Z,11.27
2022-10-03T06:28:35.564Z,14.10
2022-10-03T06:31:53.064Z,16.52
2022-10-03T06:35:16.455Z,12.98
2022-10-03T06:38:37.163Z,17.65
2022-10-03T06:41:55.104Z,14.52
2022-10-03T06:45:16.753Z,17.27
2022-10-03T06:48:40.510Z,16.13
2022-10-03T06:51:41.768Z,17.05
2022-10-03T06:55:04.835Z,18.63
2022-10-03T06:58:28.957Z,22.30
2022-10-03T07:01:52.959Z,20.33
2022-10-03T07:04:59.911Z,33.20
2022-10-03T07:08:17.354Z,36.85
2022-10-03T07:11:17.787Z,26.30
2022-10-03T07:14:21.503Z,36.25
2022-10-03T07:17:14.769Z,29.05
2022-10-03T07:23:27.791Z,26.60
2022-10-03T07:26:31.952Z,23.92
2022-10-03T07:29:43.066Z,26.92
2022-10-03T07:32:46.511Z,25.10
2022-10-03T07:36:03.458Z,19.10
2022-10-03T07:39:09.912Z,21.55
2022-10-03T07:42:09.354Z,22.45
2022-10-03T07:45:13.955Z,22.35
2022-10-03T07:48:13.414Z,19.48
2022-10-03T07:51:09.293Z,23.13
2022-10-03T07:54:44.503Z,21.33
2022-10-03T07:57:54.268Z,18.42
2022-10-03T08:00:55.747Z,12.82
2022-10-03T08:04:03.078Z,12.43
2022-10-03T08:07:10.881Z,19.63
2022-10-03T08:10:13.107Z,12.80
2022-10-03T08:13:13.603Z,12.45
2022-10-03T08:16:50.903Z,17.05
2022-10-03T08:20:06.015Z,16.20
2022-10-03T08:23:13.187Z,14.52
2022-10-03T08:26:18.147Z,14.00
2022-10-03T08:29:15.767Z,17.52
2022-10-03T08:32:26.600Z,17.33
2022-10-03T08:35:29.835Z,18.88
2022-10-03T08:38:34.130Z,14.23
2022-10-03T08:41:47.835Z,22.13
2022-10-03T08:45:03.699Z,14.90
2022-10-03T08:48:19.018Z,15.27
2022-10-03T08:51:41.808Z,14.45
2022-10-03T08:54:55.187Z,20.38
2022-10-03T08:57:52.747Z,14.52
2022-10-03T09:01:21.291Z,20.63
2022-10-03T09:04:22.741Z,22.45
2022-10-03T09:07:17.678Z,19.13
2022-10-03T09:10:37.184Z,19.80
2022-10-03T09:13:52.347Z,24.15
2022-10-03T09:17:06.387Z,18.90
2022-10-03T09:20:04.437Z,25.15
2022-10-03T09:23:07.933Z,19.17
2022-10-03T09:26:15.032Z,24.40
2022-10-03T09:29:31.280Z,21.55
2022-10-03T09:32:58.601Z,20.15
2022-10-03T09:35:59.302Z,16.02
2022-10-03T09:39:12.974Z,16.52
2022-10-03T09:42:10.635Z,20.75
2022-10-03T09:45:46.446Z,20.42
2022-10-03T09:49:05.178Z,21.42
2022-10-03T09:52:18.275Z,13.00
2022-10-03T09:55:34.263Z,12.50
2022-10-03T09:58:46.082Z,17.10
2022-10-03T10:01:59.120Z,25.63
2022-10-03T10:05:17.125Z,16.63
2022-10-03T10:08:17.913Z,21.33
2022-10-03T10:11:17.868Z,24.60
2022-10-03T10:14:46.095Z,20.70
2022-10-03T10:17:46.665Z,13.60
2022-10-03T10:21:03.235Z,19.73
2022-10-03T10:24:09.898Z,18.00
2022-10-03T10:27:39.501Z,18.85
2022-10-03T10:30:35.050Z,15.27
2022-10-03T10:33:55.145Z,14.25
2022-10-03T10:37:22.878Z,14.40
2022-10-03T10:40:32.981Z,21.40
2022-10-03T10:43:36.921Z,14.65
2022-10-03T10:46:56.423Z,17.90
2022-10-03T10:50:11.094Z,16.02
2022-10-03T10:53:17.731Z,17.38
2022-10-03T10:56:06.719Z,14.48
2022-10-03T10:59:23.709Z,19.02
2022-10-03T11:02:33.792Z,14.55
2022-10-03T11:05:42.558Z,12.63
2022-10-03T11:08:49.799Z,18.48
2022-10-03T11:12:07.102Z,15.15
2022-10-03T11:15:16.930Z,15.38
2022-10-03T11:18:21.395Z,18.17
2022-10-03T11:21:36.315Z,14.82
2022-10-03T11:24:35.279Z,14.30
2022-10-03T11:27:32.956Z,15.13
2022-10-03T11:30:39.891Z,12.88
2022-10-03T11:33:58.754Z,17.70
2022-10-03T11:37:04.048Z,23.50
2022-10-03T11:40:15.245Z,27.60
2022-10-03T11:43:28.125Z,16.67
2022-10-03T11:46:24.902Z,17.03
2022-10-03T11:49:32.299Z,15.45
2022-10-03T11:52:56.877Z,14.80
2022-10-03T11:56:13.393Z,15.25
2022-10-03T11:59:33.165Z,17.35
2022-10-03T12:02:53.868Z,13.90
2022-10-03T12:06:40.017Z,13.93
2022-10-03T12:09:45.471Z,17.23
2022-10-03T12:12:39.347Z,15.75
2022-10-03T12:15:38.313Z,19.02
2022-10-03T12:18:45.055Z,18.40
2022-10-03T12:21:55.366Z,16.35
2022-10-03T12:24:43.682Z,13.02
2022-10-03T12:28:15.370Z,13.80
2022-10-03T12:31:10.459Z,16.92
2022-10-03T12:34:13.923Z,20.20
2022-10-03T12:40:27.674Z,19.40
2022-10-03T12:43:34.452Z,19.52
2022-10-03T12:46:31.426Z,16.35
2022-10-03T12:49:43.513Z,21.38
2022-10-03T12:52:35.507Z,17.00
2022-10-03T12:55:36.496Z,19.73
2022-10-03T12:58:48.326Z,16.13
2022-10-03T13:01:52.793Z,17.73
2022-10-03T13:04:42.661Z,21.27
2022-10-03T13:07:57.891Z,13.20
2022-10-03T13:10:51.726Z,9.32
2022-10-03T13:14:00.732Z,19.05
2022-10-03T13:17:04.476Z,8.18
2022-10-03T13:23:04.662Z,17.08
2022-10-03T13:26:33.382Z,15.30
2022-10-03T13:29:42.716Z,19.27
2022-10-03T13:32:31.943Z,19.75
2022-10-03T13:35:45.426Z,17.55
2022-10-03T13:38:45.901Z,22.63
2022-10-03T13:42:00.780Z,21.63
2022-10-03T13:44:57.097Z,18.13
2022-10-03T13:47:55.647Z,14.45
2022-10-03T13:50:48.398Z,10.63
2022-10-03T13:53:49.563Z,20.73
2022-10-03T13:56:51.944Z,23.10
2022-10-03T14:00:08.704Z,14.80
2022-10-03T14:03:23.083Z,14.70
2022-10-03T14:06:26.878Z,11.75
2022-10-03T14:09:34.414Z,17.48
2022-10-03T14:12:58.101Z,12.90
2022-10-03T14:15:58.074Z,15.90
2022-10-03T14:19:05.777Z,12.95
2022-10-03T14:21:57.812Z,9.02
2022-10-03T14:24:52.003Z,12.75
2022-10-03T14:27:56.461Z,9.68
2022-10-03T14:31:07.187Z,23.05
2022-10-03T14:34:31.496Z,20.17
2022-10-03T14:37:23.252Z,28.95
2022-10-03T14:40:15.055Z,15.13
2022-10-03T14:43:06.509Z,21.33
2022-10-03T14:45:55.831Z,17.52
2022-10-03T14:48:46.340Z,20.63
2022-10-03T14:51:44.260Z,18.58
2022-10-03T14:54:31.474Z,24.75
2022-10-03T14:57:25.840Z,15.55
2022-10-03T15:00:44.018Z,18.42
2022-10-03T15:03:34.101Z,16.95
2022-10-03T15:06:35.453Z,22.00
2022-10-03T15:09:38.554Z,17.35
2022-10-03T15:12:32.957Z,28.05
2022-10-03T15:15:24.587Z,20.95
2022-10-03T15:18:17.002Z,16.98
2022-10-03T15:21:04.824Z,17.15
2022-10-03T15:23:57.463Z,21.15
2022-10-03T15:26:49.946Z,14.25
2022-10-03T15:29:39.034Z,18.77
2022-10-03T15:32:30.002Z,25.55
2022-10-03T15:35:27.363Z,15.98
2022-10-03T15:38:25.483Z,24.70
2022-10-03T15:41:17.045Z,17.63
2022-10-03T15:44:33.014Z,17.33
2022-10-03T15:47:22.918Z,27.70
2022-10-03T15:50:17.845Z,21.17
2022-10-03T15:53:37.232Z,17.08
2022-10-03T15:56:26.493Z,20.30
2022-10-03T15:59:36.802Z,25.48
2022-10-03T16:02:29.245Z,24.65
2022-10-03T16:05:19.922Z,24.55
2022-10-03T16:08:10.551Z,24.67
2022-10-03T16:11:11.499Z,22.75
2022-10-03T16:14:13.825Z,22.77
2022-10-03T16:17:26.026Z,17.67
2022-10-03T16:20:47.420Z,23.15
2022-10-03T16:23:40.599Z,17.98
2022-10-03T16:26:35.221Z,23.98
2022-10-03T16:29:29.871Z,24.98
2022-10-03T16:32:20.241Z,20.20
2022-10-03T16:35:21.291Z,15.98
2022-10-03T16:38:18.483Z,22.40
2022-10-03T16:41:23.866Z,21.73
2022-10-03T16:44:36.280Z,19.88
2022-10-03T16:47:38.525Z,22.88
2022-10-03T16:50:25.220Z,20.40
2022-10-03T16:53:11.424Z,24.70
2022-10-03T16:56:07.169Z,21.27
2022-10-03T16:58:55.397Z,20.73
2022-10-03T17:01:54.539Z,20.80
2022-10-03T17:04:44.757Z,21.70
2022-10-03T17:07:47.374Z,16.63
2022-10-03T17:10:38.922Z,17.20
2022-10-03T17:13:52.475Z,22.58
2022-10-03T17:16:49.488Z,18.92
2022-10-03T17:19:50.289Z,26.10
2022-10-03T17:22:46.742Z,21.77
2022-10-03T17:26:33.351Z,25.95
2022-10-03T17:29:36.344Z,20.08
2022-10-03T17:32:34.103Z,22.45
2022-10-03T17:35:28.541Z,25.13
2022-10-03T17:38:49.264Z,23.63
2022-10-03T17:41:35.566Z,22.63
2022-10-03T17:44:47.299Z,26.10
2022-10-03T17:48:06.120Z,24.23
2022-10-03T17:51:02.931Z,21.27
2022-10-03T17:53:57.525Z,28.45
2022-10-03T17:56:56.820Z,24.00
2022-10-03T17:59:55.148Z,28.52
2022-10-03T18:02:59.224Z,29.60
2022-10-03T18:05:52.621Z,32.22
2022-10-03T18:11:30.530Z,23.15
2022-10-03T18:14:19.070Z,24.40
2022-10-03T18:17:19.835Z,28.17
2022-10-03T18:20:22.963Z,20.25
2022-10-03T18:23:31.041Z,28.63
2022-10-03T18:26:48.051Z,16.85
2022-10-03T18:29:56.213Z,21.40
2022-10-03T18:32:45.672Z,19.08
2022-10-03T18:35:36.083Z,21.33
2022-10-03T18:38:26.110Z,21.77
2022-10-03T18:41:15.241Z,25.02
2022-10-03T18:44:01.734Z,22.48
2022-10-03T18:46:52.836Z,26.73
2022-10-03T18:49:41.959Z,29.10
2022-10-03T18:52:52.506Z,25.73
2022-10-03T18:55:46.782Z,22.00
2022-10-03T18:59:11.486Z,28.45
2022-10-03T19:02:01.859Z,23.88
2022-10-03T19:05:12.034Z,22.60
2022-10-03T19:08:16.699Z,22.30
2022-10-03T19:11:11.677Z,25.15
2022-10-03T19:14:18.015Z,22.50
2022-10-03T19:17:47.855Z,22.15
2022-10-03T19:20:39.809Z,27.98
2022-10-03T19:23:36.129Z,26.92
2022-10-03T19:26:31.328Z,24.98
2022-10-03T19:29:28.994Z,21.88
2022-10-03T19:35:05.698Z,19.13
2022-10-03T19:38:02.308Z,24.50
2022-10-03T19:40:53.243Z,26.90
2022-10-03T19:43:49.551Z,25.92
2022-10-03T19:46:50.437Z,21.60
2022-10-03T19:49:42.242Z,20.42
2022-10-03T19:52:42.061Z,21.52
2022-10-03T19:55:40.840Z,27.98
2022-10-03T19:58:28.934Z,24.80
2022-10-03T20:01:16.506Z,24.40
2022-10-03T20:04:02.515Z,20.00
2022-10-03T20:06:50.098Z,24.33
2022-10-03T20:09:36.773Z,26.10
2022-10-03T20:12:26.665Z,21.63
2022-10-03T20:15:38.591Z,27.23
2022-10-03T20:18:33.667Z,24.13
2022-10-03T20:21:25.873Z,23.60
2022-10-03T20:24:32.868Z,21.15
2022-10-03T20:27:33.786Z,15.80
2022-10-03T20:30:25.304Z,22.92
2022-10-03T20:33:20.455Z,27.60
2022-10-03T20:36:23.463Z,27.60
2022-10-03T20:39:18.468Z,30.30
2022-10-03T20:42:26.438Z,21.85
2022-10-03T20:45:22.460Z,25.73
2022-10-03T20:48:18.487Z,28.08
2022-10-03T20:51:04.558Z,25.10
2022-10-03T20:53:54.817Z,26.95
2022-10-03T20:57:14.217Z,24.50
2022-10-03T21:00:16.144Z,22.80
2022-10-03T21:03:12.962Z,21.40
2022-10-03T21:06:00.080Z,23.58
2022-10-03T21:08:48.005Z,19.90
2022-10-03T21:11:39.317Z,23.75
2022-10-03T21:14:29.249Z,19.27
2022-10-03T21:17:17.354Z,27.92
2022-10-03T21:20:12.262Z,24.20
2022-10-03T21:23:03.035Z,26.98
2022-10-03T21:25:51.291Z,25.13
2022-10-03T21:28:38.611Z,22.10
2022-10-03T21:31:29.575Z,31.83
2022-10-03T21:34:30.198Z,23.02
2022-10-03T21:37:44.978Z,19.73
2022-10-03T21:41:08.614Z,21.77
2022-10-03T21:43:55.524Z,30.00
2022-10-03T21:46:51.389Z,29.23
2022-10-03T21:49:48.106Z,25.73
2022-10-03T21:53:00.026Z,28.23
2022-10-03T21:56:09.055Z,25.02
2022-10-03T21:59:13.475Z,28.42
2022-10-03T22:02:35.746Z,21.95
2022-10-03T22:05:32.488Z,23.88
2022-10-03T22:08:40.083Z,20.77
2022-10-03T22:11:28.395Z,22.48
2022-10-03T22:14:56.649Z,22.13
2022-10-03T22:17:50.454Z,23.02
2022-10-03T22:20:37.354Z,30.48
2022-10-03T22:23:44.802Z,20.67
2022-10-03T22:27:01.811Z,23.23
2022-10-03T22:30:10.369Z,24.35
2022-10-03T22:33:07.873Z,25.58
2022-10-03T22:35:59.459Z,29.63
2022-10-03T22:38:46.986Z,20.75
2022-10-03T22:41:32.646Z,26.83
2022-10-03T22:44:22.092Z,29.45
2022-10-03T22:47:13.684Z,25.70
2022-10-03T22:50:07.934Z,21.42
2022-10-03T22:52:54.158Z,20.33
2022-10-03T22:55:45.820Z,26.13
2022-10-03T22:58:31.351Z,21.27
2022-10-03T23:01:17.302Z,27.70
2022-10-03T23:04:06.480Z,24.25
2022-10-03T23:07:07.042Z,26.90
2022-10-03T23:10:21.484Z,19.75
2022-10-03T23:13:34.058Z,22.52
2022-10-03T23:16:54.218Z,25.85
2022-10-03T23:19:51.993Z,21.15
2022-10-03T23:22:46.254Z,28.35
2022-10-03T23:25:36.730Z,23.52
2022-10-03T23:28:40.642Z,23.08
2022-10-03T23:31:54.665Z,31.83
2022-10-03T23:34:45.257Z,21.60
2022-10-03T23:37:40.083Z,23.80
2022-10-03T23:40:38.983Z,23.05
2022-10-03T23:43:38.829Z,27.15
2022-10-03T23:46:28.243Z,26.13
2022-10-03T23:49:14.290Z,35.03
2022-10-03T23:52:00.419Z,26.30
2022-10-03T23:54:49.281Z,21.20
2022-10-03T23:57:40.245Z,28.48
